aviador You're here:

KBWW Decoded Metar

in
Report Time2017-08-16 19:15:00
UTC Time2017-08-16 19:32:17
Flight Rules vfr VFR
Wind030° at 12 kt
W.Decomp.*RWY 31: 2.1 kt HW 11.8 kt RCW
W.Rank030° ranks 25
Current wind is above 030° avg. (9.9)
Visibility9999 m
Phenomena:N/A
Clouds:Scattered 060 Hf
Scattered 070 Hf
Expected CloudBase > 6,000 ft AGL from Temp-Dew spread
CeilingNone
Temp25°C
Dew Point10°C (39% RH)
AAT20.7°C
QNH1012 hPa
Raw Report
METAR KBWW 161915Z AUTO 03012KT 360V060 10SM SCT060 SCT070 25/10 A2988
RMK AO2=

Extra information for KBWW:More info

Social comments